sensor_id;sensor_type;location;lat;lon;timestamp;pressure;altitude;pressure_sealevel;temperature;humidity
19777;BME280;10047;42.490;26.012;2024-03-08T00:01:55;140183.84;;;5.63;100.00
19777;BME280;10047;42.490;26.012;2024-03-08T00:04:20;140220.72;;;5.84;100.00
19777;BME280;10047;42.490;26.012;2024-03-08T00:06:46;140201.44;;;5.78;100.00
19777;BME280;10047;42.490;26.012;2024-03-08T00:09:13;140255.78;;;5.81;100.00
19777;BME280;10047;42.490;26.012;2024-03-08T00:11:39;140312.94;;;6.50;100.00
19777;BME280;10047;42.490;26.012;2024-03-08T00:14:04;140406.94;;;6.32;100.00
19777;BME280;10047;42.490;26.012;2024-03-08T00:16:32;140253.63;;;5.99;100.00
19777;BME280;10047;42.490;26.012;2024-03-08T00:18:58;140334.69;;;6.36;100.00
19777;BME280;10047;42.490;26.012;2024-03-08T00:21:23;140253.03;;;6.43;100.00
19777;BME280;10047;42.490;26.012;2024-03-08T00:23:49;140249.06;;;5.90;100.00
19777;BME280;10047;42.490;26.012;2024-03-08T00:26:14;140204.03;;;5.58;100.00
19777;BME280;10047;42.490;26.012;2024-03-08T00:28:40;140335.03;;;6.21;100.00
19777;BME280;10047;42.490;26.012;2024-03-08T00:31:05;140365.13;;;6.31;100.00
19777;BME280;10047;42.490;26.012;2024-03-08T00:33:32;140214.22;;;5.78;100.00
19777;BME280;10047;42.490;26.012;2024-03-08T00:35:58;140329.31;;;6.24;100.00
19777;BME280;10047;42.490;26.012;2024-03-08T00:38:23;140356.84;;;6.27;100.00
19777;BME280;10047;42.490;26.012;2024-03-08T00:40:49;140422.81;;;6.23;100.00
19777;BME280;10047;42.490;26.012;2024-03-08T00:43:14;140287.88;;;5.66;100.00
19777;BME280;10047;42.490;26.012;2024-03-08T00:45:40;140297.13;;;5.71;100.00
19777;BME280;10047;42.490;26.012;2024-03-08T00:48:08;140402.69;;;6.07;100.00
19777;BME280;10047;42.490;26.012;2024-03-08T00:50:34;140448.94;;;6.26;100.00
19777;BME280;10047;42.490;26.012;2024-03-08T00:53:00;140403.13;;;6.19;100.00
19777;BME280;10047;42.490;26.012;2024-03-08T00:55:25;140319.56;;;5.74;100.00
19777;BME280;10047;42.490;26.012;2024-03-08T00:57:52;140439.66;;;6.48;100.00
19777;BME280;10047;42.490;26.012;2024-03-08T01:00:19;140394.66;;;6.09;100.00
19777;BME280;10047;42.490;26.012;2024-03-08T01:02:46;140352.84;;;5.87;100.00
19777;BME280;10047;42.490;26.012;2024-03-08T01:05:13;140458.78;;;6.28;100.00
19777;BME280;10047;42.490;26.012;2024-03-08T01:07:38;140362.56;;;5.83;100.00
19777;BME280;10047;42.490;26.012;2024-03-08T01:10:04;140456.88;;;6.32;100.00
19777;BME280;10047;42.490;26.012;2024-03-08T01:12:34;140490.72;;;6.42;100.00
19777;BME280;10047;42.490;26.012;2024-03-08T01:15:00;140503.56;;;6.55;100.00
19777;BME280;10047;42.490;26.012;2024-03-08T01:17:26;140475.72;;;6.33;100.00
19777;BME280;10047;42.490;26.012;2024-03-08T01:19:52;140458.75;;;6.01;100.00
19777;BME280;10047;42.490;26.012;2024-03-08T01:22:18;140488.63;;;6.05;100.00
19777;BME280;10047;42.490;26.012;2024-03-08T01:24:44;140607.69;;;6.31;100.00
19777;BME280;10047;42.490;26.012;2024-03-08T01:27:09;140491.50;;;5.96;100.00
19777;BME280;10047;42.490;26.012;2024-03-08T01:29:35;140566.59;;;6.25;100.00
19777;BME280;10047;42.490;26.012;2024-03-08T01:32:00;140400.97;;;5.75;100.00
19777;BME280;10047;42.490;26.012;2024-03-08T01:34:27;140408.16;;;5.85;100.00
19777;BME280;10047;42.490;26.012;2024-03-08T01:36:54;140545.81;;;6.54;100.00
19777;BME280;10047;42.490;26.012;2024-03-08T01:39:21;140531.38;;;6.63;100.00
19777;BME280;10047;42.490;26.012;2024-03-08T01:41:47;140516.03;;;6.63;100.00
19777;BME280;10047;42.490;26.012;2024-03-08T01:44:13;140516.72;;;6.53;100.00
19777;BME280;10047;42.490;26.012;2024-03-08T01:46:44;140353.94;;;6.29;100.00
19777;BME280;10047;42.490;26.012;2024-03-08T01:49:11;140523.69;;;6.63;100.00
19777;BME280;10047;42.490;26.012;2024-03-08T01:51:38;140382.13;;;6.49;100.00
19777;BME280;10047;42.490;26.012;2024-03-08T01:54:05;140365.13;;;5.83;100.00
19777;BME280;10047;42.490;26.012;2024-03-08T01:56:31;140549.13;;;6.50;100.00
19777;BME280;10047;42.490;26.012;2024-03-08T01:58:58;140516.28;;;6.48;100.00
19777;BME280;10047;42.490;26.012;2024-03-08T02:01:25;140459.22;;;6.12;100.00
19777;BME280;10047;42.490;26.012;2024-03-08T02:03:51;140462.44;;;6.16;100.00
19777;BME280;10047;42.490;26.012;2024-03-08T02:06:16;140553.09;;;6.56;100.00
19777;BME280;10047;42.490;26.012;2024-03-08T02:08:45;140599.66;;;6.53;100.00
19777;BME280;10047;42.490;26.012;2024-03-08T02:11:11;140611.38;;;6.45;100.00
19777;BME280;10047;42.490;26.012;2024-03-08T02:13:37;140355.41;;;5.53;100.00
19777;BME280;10047;42.490;26.012;2024-03-08T02:16:03;140457.16;;;5.96;100.00
19777;BME280;10047;42.490;26.012;2024-03-08T02:18:30;140404.56;;;5.63;100.00
19777;BME280;10047;42.490;26.012;2024-03-08T02:20:57;140621.38;;;6.46;100.00
19777;BME280;10047;42.490;26.012;2024-03-08T02:23:23;140626.50;;;6.46;100.00
19777;BME280;10047;42.490;26.012;2024-03-08T02:25:50;140542.50;;;6.58;100.00
19777;BME280;10047;42.490;26.012;2024-03-08T02:28:16;140591.84;;;6.61;100.00
19777;BME280;10047;42.490;26.012;2024-03-08T02:30:44;140641.38;;;6.83;100.00
19777;BME280;10047;42.490;26.012;2024-03-08T02:33:09;140689.66;;;6.77;100.00
19777;BME280;10047;42.490;26.012;2024-03-08T02:35:36;140529.59;;;6.18;100.00
19777;BME280;10047;42.490;26.012;2024-03-08T02:38:03;140627.31;;;6.69;100.00
19777;BME280;10047;42.490;26.012;2024-03-08T02:40:29;140424.16;;;5.95;100.00
19777;BME280;10047;42.490;26.012;2024-03-08T02:42:54;140640.63;;;6.66;100.00
19777;BME280;10047;42.490;26.012;2024-03-08T02:45:20;140580.34;;;6.27;100.00
19777;BME280;10047;42.490;26.012;2024-03-08T02:47:45;140566.53;;;6.39;100.00
19777;BME280;10047;42.490;26.012;2024-03-08T02:50:11;140525.50;;;6.20;100.00
19777;BME280;10047;42.490;26.012;2024-03-08T02:52:37;140674.75;;;7.09;100.00
19777;BME280;10047;42.490;26.012;2024-03-08T02:55:03;140726.59;;;6.71;100.00
19777;BME280;10047;42.490;26.012;2024-03-08T02:57:31;140610.13;;;6.59;100.00
19777;BME280;10047;42.490;26.012;2024-03-08T02:59:57;140694.00;;;6.81;100.00
19777;BME280;10047;42.490;26.012;2024-03-08T03:02:24;140708.34;;;6.80;100.00
19777;BME280;10047;42.490;26.012;2024-03-08T03:04:50;140609.88;;;6.33;100.00
19777;BME280;10047;42.490;26.012;2024-03-08T03:07:15;140617.16;;;6.82;100.00
19777;BME280;10047;42.490;26.012;2024-03-08T03:09:42;140733.06;;;7.25;100.00
19777;BME280;10047;42.490;26.012;2024-03-08T03:12:08;140761.50;;;7.10;100.00
19777;BME280;10047;42.490;26.012;2024-03-08T03:14:35;140756.09;;;6.98;100.00
19777;BME280;10047;42.490;26.012;2024-03-08T03:17:04;140653.13;;;6.81;100.00
19777;BME280;10047;42.490;26.012;2024-03-08T03:19:30;140668.72;;;6.46;100.00
19777;BME280;10047;42.490;26.012;2024-03-08T03:21:55;140751.66;;;7.08;100.00
19777;BME280;10047;42.490;26.012;2024-03-08T03:24:21;140738.41;;;6.97;100.00
19777;BME280;10047;42.490;26.012;2024-03-08T03:26:46;140640.16;;;6.55;100.00
19777;BME280;10047;42.490;26.012;2024-03-08T03:29:13;140737.38;;;6.89;100.00
19777;BME280;10047;42.490;26.012;2024-03-08T03:31:40;140660.91;;;6.12;100.00
19777;BME280;10047;42.490;26.012;2024-03-08T03:34:06;140835.06;;;6.72;100.00
19777;BME280;10047;42.490;26.012;2024-03-08T03:36:34;140689.81;;;6.49;100.00
19777;BME280;10047;42.490;26.012;2024-03-08T03:39:02;140694.03;;;7.09;100.00
19777;BME280;10047;42.490;26.012;2024-03-08T03:41:41;140841.16;;;7.08;100.00
19777;BME280;10047;42.490;26.012;2024-03-08T03:44:08;140701.13;;;7.12;100.00
19777;BME280;10047;42.490;26.012;2024-03-08T03:46:34;140836.16;;;7.00;100.00
19777;BME280;10047;42.490;26.012;2024-03-08T03:48:59;140711.56;;;6.28;100.00
19777;BME280;10047;42.490;26.012;2024-03-08T03:51:25;140816.47;;;6.96;100.00
19777;BME280;10047;42.490;26.012;2024-03-08T03:53:51;140854.94;;;6.89;100.00
19777;BME280;10047;42.490;26.012;2024-03-08T03:56:16;140705.50;;;6.47;100.00
19777;BME280;10047;42.490;26.012;2024-03-08T03:58:42;140762.81;;;6.41;100.00
19777;BME280;10047;42.490;26.012;2024-03-08T04:01:07;140818.81;;;6.97;100.00
19777;BME280;10047;42.490;26.012;2024-03-08T04:03:33;140820.22;;;6.97;100.00
19777;BME280;10047;42.490;26.012;2024-03-08T04:05:58;140759.97;;;6.70;100.00
19777;BME280;10047;42.490;26.012;2024-03-08T04:08:24;140922.53;;;7.03;100.00
19777;BME280;10047;42.490;26.012;2024-03-08T04:10:50;140851.31;;;6.81;100.00
19777;BME280;10047;42.490;26.012;2024-03-08T04:13:16;140844.81;;;7.02;100.00
19777;BME280;10047;42.490;26.012;2024-03-08T04:15:41;140908.25;;;6.91;100.00
19777;BME280;10047;42.490;26.012;2024-03-08T04:18:09;140870.44;;;6.88;100.00
19777;BME280;10047;42.490;26.012;2024-03-08T04:20:35;140877.97;;;6.75;100.00
19777;BME280;10047;42.490;26.012;2024-03-08T04:23:01;140904.59;;;6.97;100.00
19777;BME280;10047;42.490;26.012;2024-03-08T04:25:27;140888.81;;;6.78;100.00
19777;BME280;10047;42.490;26.012;2024-03-08T04:27:52;140749.06;;;7.29;100.00
19777;BME280;10047;42.490;26.012;2024-03-08T04:30:18;140893.16;;;6.96;100.00
19777;BME280;10047;42.490;26.012;2024-03-08T04:32:49;140957.97;;;6.91;100.00
19777;BME280;10047;42.490;26.012;2024-03-08T04:35:15;140944.28;;;6.96;100.00
19777;BME280;10047;42.490;26.012;2024-03-08T04:37:40;140946.78;;;6.76;100.00
19777;BME280;10047;42.490;26.012;2024-03-08T04:40:06;140879.09;;;6.89;100.00
19777;BME280;10047;42.490;26.012;2024-03-08T04:42:33;140826.41;;;6.36;100.00
19777;BME280;10047;42.490;26.012;2024-03-08T04:44:58;140928.88;;;6.90;100.00
19777;BME280;10047;42.490;26.012;2024-03-08T04:47:24;140686.41;;;6.12;100.00
19777;BME280;10047;42.490;26.012;2024-03-08T04:49:50;140867.38;;;6.77;100.00
19777;BME280;10047;42.490;26.012;2024-03-08T04:52:16;140960.38;;;6.78;100.00
19777;BME280;10047;42.490;26.012;2024-03-08T04:54:41;140937.69;;;7.05;100.00
19777;BME280;10047;42.490;26.012;2024-03-08T04:57:07;140919.28;;;6.79;100.00
19777;BME280;10047;42.490;26.012;2024-03-08T04:59:32;140979.94;;;6.69;100.00
19777;BME280;10047;42.490;26.012;2024-03-08T05:01:58;140814.59;;;5.95;100.00
19777;BME280;10047;42.490;26.012;2024-03-08T05:04:23;140900.34;;;6.71;100.00
19777;BME280;10047;42.490;26.012;2024-03-08T05:06:49;140877.56;;;7.32;100.00
19777;BME280;10047;42.490;26.012;2024-03-08T05:09:14;140938.97;;;6.97;100.00
19777;BME280;10047;42.490;26.012;2024-03-08T05:11:42;141051.56;;;7.04;100.00
19777;BME280;10047;42.490;26.012;2024-03-08T05:14:09;140884.75;;;7.00;100.00
19777;BME280;10047;42.490;26.012;2024-03-08T05:16:35;140988.81;;;7.19;100.00
19777;BME280;10047;42.490;26.012;2024-03-08T05:19:01;141038.69;;;6.97;100.00
19777;BME280;10047;42.490;26.012;2024-03-08T05:21:26;140908.63;;;7.10;100.00
19777;BME280;10047;42.490;26.012;2024-03-08T05:23:52;140904.53;;;6.62;100.00
19777;BME280;10047;42.490;26.012;2024-03-08T05:26:17;141012.44;;;7.22;100.00
19777;BME280;10047;42.490;26.012;2024-03-08T05:28:42;140848.78;;;6.87;100.00
19777;BME280;10047;42.490;26.012;2024-03-08T05:31:08;140883.56;;;6.65;100.00
19777;BME280;10047;42.490;26.012;2024-03-08T05:33:33;140914.09;;;6.87;100.00
19777;BME280;10047;42.490;26.012;2024-03-08T05:36:02;140868.69;;;7.32;100.00
19777;BME280;10047;42.490;26.012;2024-03-08T05:38:28;141002.13;;;7.57;100.00
19777;BME280;10047;42.490;26.012;2024-03-08T05:40:54;140982.63;;;7.52;100.00
19777;BME280;10047;42.490;26.012;2024-03-08T05:43:20;140989.69;;;7.48;100.00
19777;BME280;10047;42.490;26.012;2024-03-08T05:45:46;140979.44;;;7.48;100.00
19777;BME280;10047;42.490;26.012;2024-03-08T05:48:11;141038.00;;;7.43;100.00
19777;BME280;10047;42.490;26.012;2024-03-08T05:50:39;140900.03;;;6.80;100.00
19777;BME280;10047;42.490;26.012;2024-03-08T05:53:05;140968.88;;;7.57;100.00
19777;BME280;10047;42.490;26.012;2024-03-08T05:55:32;140978.03;;;7.69;100.00
19777;BME280;10047;42.490;26.012;2024-03-08T05:58:00;140858.28;;;6.91;100.00
19777;BME280;10047;42.490;26.012;2024-03-08T06:00:26;140965.53;;;7.34;100.00
19777;BME280;10047;42.490;26.012;2024-03-08T06:02:52;141004.66;;;7.50;100.00
19777;BME280;10047;42.490;26.012;2024-03-08T06:05:17;141025.53;;;7.75;100.00
19777;BME280;10047;42.490;26.012;2024-03-08T06:07:43;140905.75;;;7.18;100.00
19777;BME280;10047;42.490;26.012;2024-03-08T06:10:09;141049.25;;;7.65;100.00
19777;BME280;10047;42.490;26.012;2024-03-08T06:12:36;140898.25;;;7.17;100.00
19777;BME280;10047;42.490;26.012;2024-03-08T06:15:06;141069.34;;;7.26;100.00
19777;BME280;10047;42.490;26.012;2024-03-08T06:17:32;140875.06;;;7.18;100.00
19777;BME280;10047;42.490;26.012;2024-03-08T06:19:57;140893.59;;;7.22;100.00
19777;BME280;10047;42.490;26.012;2024-03-08T06:22:23;140959.97;;;7.70;100.00
19777;BME280;10047;42.490;26.012;2024-03-08T06:24:48;141038.56;;;7.54;100.00
19777;BME280;10047;42.490;26.012;2024-03-08T06:27:15;141029.44;;;7.68;100.00
19777;BME280;10047;42.490;26.012;2024-03-08T06:29:40;141022.91;;;7.89;100.00
19777;BME280;10047;42.490;26.012;2024-03-08T06:32:06;140926.91;;;7.28;100.00
19777;BME280;10047;42.490;26.012;2024-03-08T06:34:34;140907.09;;;7.86;100.00
19777;BME280;10047;42.490;26.012;2024-03-08T06:37:00;140904.41;;;7.19;100.00
19777;BME280;10047;42.490;26.012;2024-03-08T06:39:27;140871.63;;;7.50;100.00
19777;BME280;10047;42.490;26.012;2024-03-08T06:41:54;140927.38;;;7.33;100.00
19777;BME280;10047;42.490;26.012;2024-03-08T06:44:19;140882.16;;;7.42;100.00
19777;BME280;10047;42.490;26.012;2024-03-08T06:46:47;140899.84;;;7.36;100.00
19777;BME280;10047;42.490;26.012;2024-03-08T06:49:13;140852.53;;;6.67;100.00
19777;BME280;10047;42.490;26.012;2024-03-08T06:51:38;140826.16;;;6.65;100.00
19777;BME280;10047;42.490;26.012;2024-03-08T06:54:06;140932.84;;;7.31;100.00
19777;BME280;10047;42.490;26.012;2024-03-08T06:56:37;141016.28;;;7.50;100.00
19777;BME280;10047;42.490;26.012;2024-03-08T06:59:03;140932.75;;;7.45;100.00
19777;BME280;10047;42.490;26.012;2024-03-08T07:01:29;140905.63;;;7.46;100.00
19777;BME280;10047;42.490;26.012;2024-03-08T07:03:57;140902.53;;;7.29;100.00
19777;BME280;10047;42.490;26.012;2024-03-08T07:06:23;141052.25;;;7.90;100.00
19777;BME280;10047;42.490;26.012;2024-03-08T07:08:48;141078.81;;;7.64;100.00
19777;BME280;10047;42.490;26.012;2024-03-08T07:11:14;141071.41;;;7.76;100.00
19777;BME280;10047;42.490;26.012;2024-03-08T07:13:44;140884.28;;;7.37;100.00
19777;BME280;10047;42.490;26.012;2024-03-08T07:16:10;141027.66;;;7.92;100.00
19777;BME280;10047;42.490;26.012;2024-03-08T07:18:37;141070.22;;;7.97;100.00
19777;BME280;10047;42.490;26.012;2024-03-08T07:21:05;140928.00;;;7.43;100.00
19777;BME280;10047;42.490;26.012;2024-03-08T07:23:30;140863.88;;;7.44;100.00
19777;BME280;10047;42.490;26.012;2024-03-08T07:26:15;140981.06;;;8.08;100.00
19777;BME280;10047;42.490;26.012;2024-03-08T07:28:40;140926.53;;;7.78;100.00
19777;BME280;10047;42.490;26.012;2024-03-08T07:31:06;140992.25;;;7.96;100.00
19777;BME280;10047;42.490;26.012;2024-03-08T07:33:37;141035.94;;;7.95;100.00
19777;BME280;10047;42.490;26.012;2024-03-08T07:36:03;140860.13;;;7.43;100.00
19777;BME280;10047;42.490;26.012;2024-03-08T07:38:29;140894.38;;;7.45;100.00
19777;BME280;10047;42.490;26.012;2024-03-08T07:40:55;140865.84;;;7.74;100.00
19777;BME280;10047;42.490;26.012;2024-03-08T07:43:22;140916.63;;;7.69;100.00
19777;BME280;10047;42.490;26.012;2024-03-08T07:45:48;141033.81;;;8.06;100.00
19777;BME280;10047;42.490;26.012;2024-03-08T07:48:13;141013.44;;;8.19;100.00
19777;BME280;10047;42.490;26.012;2024-03-08T07:50:40;140891.25;;;7.75;100.00
19777;BME280;10047;42.490;26.012;2024-03-08T07:53:06;140929.63;;;7.68;100.00
19777;BME280;10047;42.490;26.012;2024-03-08T07:55:34;140931.00;;;7.47;100.00
19777;BME280;10047;42.490;26.012;2024-03-08T07:58:03;141023.22;;;7.81;100.00
19777;BME280;10047;42.490;26.012;2024-03-08T08:00:30;140991.56;;;7.86;100.00
19777;BME280;10047;42.490;26.012;2024-03-08T08:02:57;140892.41;;;7.42;100.00
19777;BME280;10047;42.490;26.012;2024-03-08T08:05:22;141019.28;;;8.09;100.00
19777;BME280;10047;42.490;26.012;2024-03-08T08:07:48;140890.00;;;7.41;100.00
19777;BME280;10047;42.490;26.012;2024-03-08T08:10:13;141043.25;;;7.97;100.00
19777;BME280;10047;42.490;26.012;2024-03-08T08:12:44;140925.03;;;7.18;100.00
19777;BME280;10047;42.490;26.012;2024-03-08T08:15:09;140948.19;;;7.31;100.00
19777;BME280;10047;42.490;26.012;2024-03-08T08:17:35;140892.41;;;7.00;100.00
19777;BME280;10047;42.490;26.012;2024-03-08T08:20:00;140977.22;;;7.67;100.00
19777;BME280;10047;42.490;26.012;2024-03-08T08:22:25;140922.56;;;7.51;100.00
19777;BME280;10047;42.490;26.012;2024-03-08T08:24:51;140875.13;;;7.04;100.00
19777;BME280;10047;42.490;26.012;2024-03-08T08:27:17;140934.47;;;7.36;100.00
19777;BME280;10047;42.490;26.012;2024-03-08T08:29:42;141023.13;;;7.95;100.00
19777;BME280;10047;42.490;26.012;2024-03-08T08:32:08;140918.06;;;7.55;100.00
19777;BME280;10047;42.490;26.012;2024-03-08T08:34:34;141009.50;;;7.65;100.00
19777;BME280;10047;42.490;26.012;2024-03-08T08:36:59;141077.72;;;7.77;100.00
19777;BME280;10047;42.490;26.012;2024-03-08T08:39:25;140846.25;;;7.29;100.00
19777;BME280;10047;42.490;26.012;2024-03-08T08:41:51;140984.75;;;7.47;100.00
19777;BME280;10047;42.490;26.012;2024-03-08T08:44:17;140945.81;;;7.30;100.00
19777;BME280;10047;42.490;26.012;2024-03-08T08:46:43;141026.56;;;7.56;100.00
19777;BME280;10047;42.490;26.012;2024-03-08T08:49:08;140866.03;;;7.19;100.00
19777;BME280;10047;42.490;26.012;2024-03-08T08:51:36;141040.25;;;7.93;100.00
19777;BME280;10047;42.490;26.012;2024-03-08T08:54:02;140925.59;;;7.15;100.00
19777;BME280;10047;42.490;26.012;2024-03-08T08:56:28;140958.41;;;7.51;100.00
19777;BME280;10047;42.490;26.012;2024-03-08T08:58:54;140798.72;;;7.16;100.00
19777;BME280;10047;42.490;26.012;2024-03-08T09:01:20;141021.53;;;7.90;100.00
19777;BME280;10047;42.490;26.012;2024-03-08T09:03:46;140916.91;;;7.54;100.00
19777;BME280;10047;42.490;26.012;2024-03-08T09:06:12;140935.34;;;7.72;100.00
19777;BME280;10047;42.490;26.012;2024-03-08T09:08:41;140917.69;;;7.57;100.00
19777;BME280;10047;42.490;26.012;2024-03-08T09:11:07;141119.00;;;8.10;100.00
19777;BME280;10047;42.490;26.012;2024-03-08T09:13:32;140975.34;;;8.11;100.00
19777;BME280;10047;42.490;26.012;2024-03-08T09:16:02;140896.72;;;7.66;100.00
19777;BME280;10047;42.490;26.012;2024-03-08T09:18:28;140870.97;;;7.47;100.00
19777;BME280;10047;42.490;26.012;2024-03-08T09:20:54;140940.25;;;7.66;100.00
19777;BME280;10047;42.490;26.012;2024-03-08T09:23:20;140925.03;;;7.18;100.00
19777;BME280;10047;42.490;26.012;2024-03-08T09:25:45;140890.97;;;7.36;100.00
19777;BME280;10047;42.490;26.012;2024-03-08T09:28:12;141062.34;;;7.70;100.00
19777;BME280;10047;42.490;26.012;2024-03-08T09:30:38;140889.34;;;7.85;100.00
19777;BME280;10047;42.490;26.012;2024-03-08T09:33:04;141076.22;;;8.06;100.00
19777;BME280;10047;42.490;26.012;2024-03-08T09:35:31;140971.75;;;8.03;100.00
19777;BME280;10047;42.490;26.012;2024-03-08T09:37:56;141003.50;;;8.38;100.00
19777;BME280;10047;42.490;26.012;2024-03-08T09:40:22;141044.34;;;8.12;100.00
19777;BME280;10047;42.490;26.012;2024-03-08T09:42:49;140994.81;;;7.96;100.00
19777;BME280;10047;42.490;26.012;2024-03-08T09:45:16;140898.00;;;7.86;100.00
19777;BME280;10047;42.490;26.012;2024-03-08T09:47:43;140917.81;;;7.70;100.00
19777;BME280;10047;42.490;26.012;2024-03-08T09:50:10;141022.31;;;8.20;100.00
19777;BME280;10047;42.490;26.012;2024-03-08T09:52:38;140968.81;;;7.98;100.00
19777;BME280;10047;42.490;26.012;2024-03-08T09:55:07;140940.84;;;7.70;100.00
19777;BME280;10047;42.490;26.012;2024-03-08T09:57:36;141019.28;;;8.09;100.00
19777;BME280;10047;42.490;26.012;2024-03-08T10:00:06;140980.81;;;7.96;100.00
19777;BME280;10047;42.490;26.012;2024-03-08T10:02:50;141016.56;;;8.10;100.00
19777;BME280;10047;42.490;26.012;2024-03-08T10:05:17;140850.75;;;7.86;100.00
19777;BME280;10047;42.490;26.012;2024-03-08T10:07:43;140976.34;;;8.06;100.00
19777;BME280;10047;42.490;26.012;2024-03-08T10:10:09;140913.13;;;8.74;100.00
19777;BME280;10047;42.490;26.012;2024-03-08T10:12:37;140998.63;;;8.43;100.00
19777;BME280;10047;42.490;26.012;2024-03-08T10:15:07;140933.34;;;8.36;100.00
19777;BME280;10047;42.490;26.012;2024-03-08T10:17:34;140784.03;;;8.07;100.00
19777;BME280;10047;42.490;26.012;2024-03-08T10:20:00;140864.09;;;8.23;100.00
19777;BME280;10047;42.490;26.012;2024-03-08T10:22:26;140888.84;;;8.81;100.00
19777;BME280;10047;42.490;26.012;2024-03-08T10:24:51;140974.19;;;8.50;100.00
19777;BME280;10047;42.490;26.012;2024-03-08T10:27:17;140838.38;;;8.57;100.00
19777;BME280;10047;42.490;26.012;2024-03-08T10:29:47;140948.41;;;8.77;100.00
19777;BME280;10047;42.490;26.012;2024-03-08T10:32:13;140807.59;;;8.70;100.00
19777;BME280;10047;42.490;26.012;2024-03-08T10:34:38;140736.19;;;7.96;100.00
19777;BME280;10047;42.490;26.012;2024-03-08T10:37:04;140809.47;;;8.14;100.00
19777;BME280;10047;42.490;26.012;2024-03-08T10:39:37;140840.31;;;8.27;100.00
19777;BME280;10047;42.490;26.012;2024-03-08T10:42:04;140767.69;;;8.18;100.00
19777;BME280;10047;42.490;26.012;2024-03-08T10:44:32;140954.16;;;8.81;100.00
19777;BME280;10047;42.490;26.012;2024-03-08T10:47:05;140932.63;;;8.86;100.00
19777;BME280;10047;42.490;26.012;2024-03-08T10:49:40;140867.91;;;8.50;100.00
19777;BME280;10047;42.490;26.012;2024-03-08T10:52:11;140864.59;;;8.60;100.00
19777;BME280;10047;42.490;26.012;2024-03-08T10:54:37;140891.22;;;8.95;100.00
19777;BME280;10047;42.490;26.012;2024-03-08T10:57:07;140815.28;;;8.77;100.00
19777;BME280;10047;42.490;26.012;2024-03-08T10:59:34;140647.56;;;8.30;100.00
19777;BME280;10047;42.490;26.012;2024-03-08T11:02:00;140907.38;;;9.10;100.00
19777;BME280;10047;42.490;26.012;2024-03-08T11:04:26;140907.56;;;9.22;100.00
19777;BME280;10047;42.490;26.012;2024-03-08T11:07:00;140868.13;;;8.62;100.00
19777;BME280;10047;42.490;26.012;2024-03-08T11:09:32;140876.41;;;8.98;100.00
19777;BME280;10047;42.490;26.012;2024-03-08T11:12:27;140997.53;;;9.28;100.00
19777;BME280;10047;42.490;26.012;2024-03-08T11:15:10;140849.44;;;9.37;100.00
19777;BME280;10047;42.490;26.012;2024-03-08T11:22:53;140917.53;;;9.49;100.00
19777;BME280;10047;42.490;26.012;2024-03-08T11:33:24;140962.31;;;9.63;100.00
19777;BME280;10047;42.490;26.012;2024-03-08T11:35:51;140852.84;;;9.71;100.00
19777;BME280;10047;42.490;26.012;2024-03-08T11:38:17;140882.06;;;9.73;100.00
19777;BME280;10047;42.490;26.012;2024-03-08T11:40:46;140728.44;;;9.89;100.00
19777;BME280;10047;42.490;26.012;2024-03-08T11:43:16;140806.75;;;9.45;100.00
19777;BME280;10047;42.490;26.012;2024-03-08T11:45:41;140794.16;;;9.44;100.00
19777;BME280;10047;42.490;26.012;2024-03-08T11:48:07;140925.53;;;9.74;100.00
19777;BME280;10047;42.490;26.012;2024-03-08T11:50:32;140881.84;;;10.37;100.00
19777;BME280;10047;42.490;26.012;2024-03-08T11:53:05;140841.56;;;10.01;100.00
19777;BME280;10047;42.490;26.012;2024-03-08T11:55:34;140789.53;;;9.86;100.00
19777;BME280;10047;42.490;26.012;2024-03-08T11:58:05;140856.97;;;9.31;100.00
19777;BME280;10047;42.490;26.012;2024-03-08T12:00:30;140807.50;;;9.60;100.00
19777;BME280;10047;42.490;26.012;2024-03-08T12:03:08;140951.50;;;9.98;100.00
19777;BME280;10047;42.490;26.012;2024-03-08T12:05:37;140823.75;;;9.50;100.00
19777;BME280;10047;42.490;26.012;2024-03-08T12:08:04;140798.66;;;9.02;100.00
19777;BME280;10047;42.490;26.012;2024-03-08T12:10:32;140746.06;;;9.28;100.00
19777;BME280;10047;42.490;26.012;2024-03-08T12:12:59;140811.59;;;9.27;100.00
19777;BME280;10047;42.490;26.012;2024-03-08T12:15:25;140818.78;;;9.49;100.00
19777;BME280;10047;42.490;26.012;2024-03-08T12:17:52;140839.06;;;9.63;100.00
19777;BME280;10047;42.490;26.012;2024-03-08T12:20:25;140875.28;;;9.81;100.00
19777;BME280;10047;42.490;26.012;2024-03-08T12:22:54;140893.66;;;9.85;100.00
19777;BME280;10047;42.490;26.012;2024-03-08T12:25:33;140818.44;;;9.44;100.00
19777;BME280;10047;42.490;26.012;2024-03-08T12:28:13;140960.75;;;9.65;100.00
19777;BME280;10047;42.490;26.012;2024-03-08T12:30:50;140898.78;;;9.85;100.00
19777;BME280;10047;42.490;26.012;2024-03-08T12:33:19;140894.47;;;10.06;100.00
19777;BME280;10047;42.490;26.012;2024-03-08T12:35:52;140919.19;;;9.73;100.00
19777;BME280;10047;42.490;26.012;2024-03-08T12:38:23;140809.38;;;10.02;100.00
19777;BME280;10047;42.490;26.012;2024-03-08T12:40:50;140894.41;;;9.94;100.00
19777;BME280;10047;42.490;26.012;2024-03-08T12:43:16;140788.84;;;9.38;100.00
19777;BME280;10047;42.490;26.012;2024-03-08T12:45:41;140801.84;;;9.44;100.00
19777;BME280;10047;42.490;26.012;2024-03-08T12:48:12;140787.13;;;9.66;100.00
19777;BME280;10047;42.490;26.012;2024-03-08T12:50:40;140701.19;;;9.02;100.00
19777;BME280;10047;42.490;26.012;2024-03-08T12:53:06;140680.91;;;9.01;100.00